createdAt,value
2017-10-07T00:02:06.600Z,4.60
2017-10-07T00:04:40.522Z,4.50
2017-10-07T00:07:14.289Z,4.87
2017-10-07T00:09:49.628Z,3.90
2017-10-07T00:12:23.596Z,4.77
2017-10-07T00:14:57.633Z,3.87
2017-10-07T00:17:32.180Z,3.90
2017-10-07T00:20:06.328Z,3.97
2017-10-07T00:22:40.948Z,3.77
2017-10-07T00:25:14.677Z,3.43
2017-10-07T00:27:48.363Z,3.30
2017-10-07T00:30:23.035Z,3.63
2017-10-07T00:32:56.907Z,3.37
2017-10-07T00:35:30.576Z,4.30
2017-10-07T00:38:04.250Z,3.10
2017-10-07T00:40:38.783Z,3.83
2017-10-07T00:43:13.003Z,3.30
2017-10-07T00:45:46.820Z,3.73
2017-10-07T00:48:20.428Z,3.33
2017-10-07T00:50:55.724Z,3.80
2017-10-07T00:53:30.325Z,4.20
2017-10-07T00:56:04.391Z,3.00
2017-10-07T00:58:38.202Z,3.97
2017-10-07T01:01:11.875Z,3.13
2017-10-07T01:03:46.297Z,3.57
2017-10-07T01:06:21.505Z,3.77
2017-10-07T01:08:55.790Z,4.00
2017-10-07T01:11:29.400Z,4.17
2017-10-07T01:14:03.274Z,3.50
2017-10-07T01:16:38.521Z,3.00
2017-10-07T01:19:12.341Z,4.80
2017-10-07T01:21:46.088Z,3.80
2017-10-07T01:24:20.113Z,3.97
2017-10-07T01:26:53.924Z,3.40
2017-10-07T01:29:27.643Z,4.00
2017-10-07T01:32:01.206Z,4.00
2017-10-07T01:34:35.241Z,3.87
2017-10-07T01:37:09.681Z,3.93
2017-10-07T01:39:43.755Z,3.03
2017-10-07T01:42:17.465Z,3.70
2017-10-07T01:44:51.173Z,3.90
2017-10-07T01:47:25.829Z,3.40
2017-10-07T01:49:59.707Z,3.90
2017-10-07T01:52:33.626Z,2.70
2017-10-07T01:55:08.152Z,3.73
2017-10-07T01:57:42.139Z,3.10
2017-10-07T02:00:15.813Z,3.87
2017-10-07T02:02:50.748Z,2.90
2017-10-07T02:05:26.766Z,3.80
2017-10-07T02:08:02.879Z,3.17
2017-10-07T02:10:36.570Z,2.57
2017-10-07T02:13:11.131Z,3.23
2017-10-07T02:15:45.134Z,3.00
2017-10-07T02:18:18.942Z,2.70
2017-10-07T02:20:53.729Z,3.30
2017-10-07T02:23:28.230Z,2.97
2017-10-07T02:26:02.094Z,2.70
2017-10-07T02:28:36.020Z,3.10
2017-10-07T02:31:09.864Z,2.40
2017-10-07T02:33:43.546Z,3.03
2017-10-07T02:36:17.232Z,2.90
2017-10-07T02:38:51.916Z,2.63
2017-10-07T02:41:26.377Z,2.23
2017-10-07T02:44:00.209Z,2.57
2017-10-07T02:46:36.213Z,3.53
2017-10-07T02:49:11.518Z,3.20
2017-10-07T02:51:45.485Z,2.63
2017-10-07T02:54:19.426Z,2.60
2017-10-07T02:56:54.106Z,3.00
2017-10-07T02:59:29.590Z,2.60
2017-10-07T03:02:04.521Z,2.57
2017-10-07T03:04:38.559Z,3.10
2017-10-07T03:07:12.545Z,2.93
2017-10-07T03:09:47.837Z,2.77
2017-10-07T03:12:21.913Z,2.60
2017-10-07T03:14:56.466Z,2.70
2017-10-07T03:17:31.706Z,2.83
2017-10-07T03:20:08.739Z,2.93
2017-10-07T03:22:42.825Z,2.57
2017-10-07T03:25:16.509Z,3.03
2017-10-07T03:27:50.342Z,2.90
2017-10-07T03:30:24.146Z,2.47
2017-10-07T03:32:58.620Z,2.93
2017-10-07T03:35:32.796Z,1.73
2017-10-07T03:38:06.509Z,2.73
2017-10-07T03:40:40.287Z,2.50
2017-10-07T03:43:14.004Z,2.43
2017-10-07T03:45:47.846Z,2.47
2017-10-07T03:48:21.430Z,2.80
2017-10-07T03:50:55.153Z,2.73
2017-10-07T03:53:28.999Z,2.87
2017-10-07T03:56:02.834Z,3.07
2017-10-07T03:58:36.676Z,2.47
2017-10-07T04:01:10.354Z,2.47
2017-10-07T04:03:43.979Z,3.70
2017-10-07T04:06:17.766Z,2.47
2017-10-07T04:08:51.480Z,2.43
2017-10-07T04:11:25.410Z,2.10
2017-10-07T04:14:00.140Z,2.57
2017-10-07T04:16:34.108Z,2.27
2017-10-07T04:19:07.780Z,2.10
2017-10-07T04:21:43.214Z,2.30
2017-10-07T04:24:17.233Z,2.33
2017-10-07T04:26:50.897Z,2.53
2017-10-07T04:29:25.477Z,2.50
2017-10-07T04:31:59.953Z,2.60
2017-10-07T04:34:34.044Z,2.50
2017-10-07T04:37:08.573Z,2.40
2017-10-07T04:39:42.799Z,2.90
2017-10-07T04:42:17.329Z,2.70
2017-10-07T04:44:51.132Z,1.87
2017-10-07T04:47:25.072Z,2.33
2017-10-07T04:49:58.849Z,2.70
2017-10-07T04:52:33.374Z,2.63
2017-10-07T04:55:07.849Z,2.43
2017-10-07T04:57:43.011Z,2.53
2017-10-07T05:00:17.064Z,2.80
2017-10-07T05:02:51.381Z,3.10
2017-10-07T05:05:25.260Z,2.37
2017-10-07T05:07:59.230Z,2.60
2017-10-07T05:10:33.884Z,2.80
2017-10-07T05:13:07.911Z,2.10
2017-10-07T05:15:42.506Z,2.27
2017-10-07T05:18:17.944Z,2.20
2017-10-07T05:20:51.827Z,2.43
2017-10-07T05:23:25.514Z,2.60
2017-10-07T05:25:59.322Z,2.93
2017-10-07T05:28:33.001Z,2.23
2017-10-07T05:31:06.724Z,2.20
2017-10-07T05:33:41.446Z,2.20
2017-10-07T05:36:15.862Z,2.40
2017-10-07T05:38:49.664Z,2.27
2017-10-07T05:41:23.578Z,2.67
2017-10-07T05:43:58.176Z,2.20
2017-10-07T05:46:32.581Z,2.87
2017-10-07T05:49:06.614Z,2.20
2017-10-07T05:51:40.368Z,2.53
2017-10-07T05:54:14.141Z,2.30
2017-10-07T05:56:48.809Z,2.40
2017-10-07T05:59:22.974Z,2.50
2017-10-07T06:01:56.852Z,2.40
2017-10-07T06:04:31.281Z,2.63
2017-10-07T06:07:05.291Z,2.57
2017-10-07T06:09:39.042Z,2.13
2017-10-07T06:12:13.625Z,2.23
2017-10-07T06:14:48.336Z,2.60
2017-10-07T06:17:22.146Z,2.07
2017-10-07T06:19:57.103Z,2.30
2017-10-07T06:22:32.424Z,2.17
2017-10-07T06:25:06.540Z,3.60
2017-10-07T06:27:40.481Z,2.50
2017-10-07T06:30:15.360Z,2.60
2017-10-07T06:32:50.285Z,2.50
2017-10-07T06:35:24.841Z,2.37
2017-10-07T06:37:58.725Z,2.80
2017-10-07T06:40:32.560Z,2.43
2017-10-07T06:43:06.556Z,3.00
2017-10-07T06:45:41.154Z,3.03
2017-10-07T06:48:14.821Z,2.10
2017-10-07T06:50:48.638Z,2.77
2017-10-07T06:53:22.366Z,2.60
2017-10-07T06:55:56.656Z,1.90
2017-10-07T06:58:30.991Z,2.57
2017-10-07T07:01:05.152Z,3.00
2017-10-07T07:03:39.640Z,3.20
2017-10-07T07:06:14.524Z,3.40
2017-10-07T07:08:48.607Z,4.17
2017-10-07T07:11:22.625Z,2.90
2017-10-07T07:13:57.445Z,2.93
2017-10-07T07:16:32.428Z,3.67
2017-10-07T07:19:06.536Z,3.50
2017-10-07T07:21:40.930Z,3.57
2017-10-07T07:24:14.940Z,3.40
2017-10-07T07:26:49.065Z,3.37
2017-10-07T07:29:23.072Z,2.87
2017-10-07T07:31:56.780Z,15.20
2017-10-07T07:34:31.333Z,9.97
2017-10-07T07:37:06.010Z,5.50
2017-10-07T07:39:40.090Z,5.00
2017-10-07T07:42:13.716Z,5.00
2017-10-07T07:44:47.506Z,5.40
2017-10-07T07:47:21.482Z,4.70
2017-10-07T07:49:55.211Z,3.87
2017-10-07T07:52:28.925Z,4.10
2017-10-07T07:55:03.061Z,3.43
2017-10-07T07:57:37.675Z,4.90
2017-10-07T08:00:12.247Z,3.27
2017-10-07T08:02:45.997Z,3.87
2017-10-07T08:05:19.849Z,3.30
2017-10-07T08:07:53.616Z,3.60
2017-10-07T08:10:28.919Z,2.87
2017-10-07T08:13:04.045Z,3.67
2017-10-07T08:15:37.982Z,2.80
2017-10-07T08:18:12.592Z,2.93
2017-10-07T08:20:47.613Z,3.43
2017-10-07T08:23:22.061Z,3.03
2017-10-07T08:25:55.654Z,3.10
2017-10-07T08:28:29.437Z,2.70
2017-10-07T08:31:03.275Z,2.90
2017-10-07T08:33:37.282Z,2.73
2017-10-07T08:36:11.298Z,2.93
2017-10-07T08:38:46.075Z,3.50
2017-10-07T08:41:20.233Z,3.00
2017-10-07T08:43:54.558Z,3.03
2017-10-07T08:46:28.942Z,3.10
2017-10-07T08:49:03.205Z,2.70
2017-10-07T08:51:37.672Z,2.70
2017-10-07T08:54:11.736Z,3.00
2017-10-07T08:56:45.535Z,2.13
2017-10-07T08:59:20.125Z,2.47
2017-10-07T09:01:53.761Z,2.63
2017-10-07T09:04:27.538Z,2.70
2017-10-07T09:07:01.378Z,2.27
2017-10-07T09:09:36.065Z,2.40
2017-10-07T09:12:10.197Z,3.27
2017-10-07T09:14:43.832Z,2.97
2017-10-07T09:17:17.557Z,2.60
2017-10-07T09:19:51.320Z,2.50
2017-10-07T09:22:25.023Z,3.17
2017-10-07T09:24:58.710Z,2.90
2017-10-07T09:27:33.285Z,2.67
2017-10-07T09:30:07.398Z,2.50
2017-10-07T09:32:41.097Z,2.77
2017-10-07T09:35:15.911Z,2.43
2017-10-07T09:37:50.586Z,3.20
2017-10-07T09:40:24.520Z,2.63
2017-10-07T09:42:58.305Z,2.00
2017-10-07T09:45:33.069Z,2.70
2017-10-07T09:48:06.853Z,2.30
2017-10-07T09:50:41.984Z,2.87
2017-10-07T09:53:16.391Z,2.77
2017-10-07T09:55:50.489Z,2.67
2017-10-07T09:58:24.459Z,2.60
2017-10-07T10:00:58.310Z,2.70
2017-10-07T10:03:32.964Z,2.87
2017-10-07T10:06:07.085Z,2.70
2017-10-07T10:08:41.670Z,2.20
2017-10-07T10:11:16.409Z,2.80
2017-10-07T10:13:51.774Z,2.30
2017-10-07T10:16:26.212Z,2.63
2017-10-07T10:19:00.908Z,2.57
2017-10-07T10:21:34.641Z,2.70
2017-10-07T10:24:09.218Z,3.60
2017-10-07T10:26:43.049Z,2.53
2017-10-07T10:29:16.874Z,3.07
2017-10-07T10:31:50.756Z,2.80
2017-10-07T10:34:24.498Z,3.00
2017-10-07T10:36:58.354Z,2.60
2017-10-07T10:39:32.152Z,2.87
2017-10-07T10:42:06.797Z,2.00
2017-10-07T10:44:40.773Z,2.77
2017-10-07T10:47:14.553Z,2.80
2017-10-07T10:49:48.523Z,2.13
2017-10-07T10:52:22.274Z,3.10
2017-10-07T10:54:56.036Z,2.70
2017-10-07T10:57:30.626Z,4.60
2017-10-07T11:00:05.076Z,2.93
2017-10-07T11:02:39.133Z,2.93
2017-10-07T11:05:13.868Z,3.20
2017-10-07T11:07:48.030Z,2.77
2017-10-07T11:10:21.604Z,2.80
2017-10-07T11:12:56.117Z,3.00
2017-10-07T11:15:31.283Z,3.70
2017-10-07T11:18:05.227Z,4.07
2017-10-07T11:20:39.769Z,2.80
2017-10-07T11:23:13.809Z,5.20
2017-10-07T11:25:48.319Z,4.20
2017-10-07T11:28:22.469Z,3.40
2017-10-07T11:30:56.180Z,2.90
2017-10-07T11:33:29.953Z,2.80
2017-10-07T11:36:03.744Z,3.67
2017-10-07T11:38:38.377Z,3.10
2017-10-07T11:41:12.325Z,3.23
2017-10-07T11:43:46.926Z,2.70
2017-10-07T11:46:20.973Z,3.17
2017-10-07T11:48:54.917Z,3.17
2017-10-07T11:51:28.718Z,2.40
2017-10-07T11:54:03.374Z,2.30
2017-10-07T11:56:37.490Z,2.47
2017-10-07T11:59:12.098Z,3.07
2017-10-07T12:01:46.225Z,2.97
2017-10-07T12:04:20.906Z,3.07
2017-10-07T12:06:55.889Z,3.10
2017-10-07T12:09:29.931Z,2.40
2017-10-07T12:12:04.778Z,2.17
2017-10-07T12:14:38.807Z,2.10
2017-10-07T12:17:13.431Z,2.50
2017-10-07T12:19:47.608Z,2.80
2017-10-07T12:22:21.470Z,2.10
2017-10-07T12:24:55.342Z,2.60
2017-10-07T12:27:29.878Z,2.17
2017-10-07T12:30:04.594Z,2.20
2017-10-07T12:32:39.675Z,1.90
2017-10-07T12:35:14.706Z,2.10
2017-10-07T12:37:48.663Z,3.03
2017-10-07T12:40:23.319Z,2.10
2017-10-07T12:42:57.332Z,2.40
2017-10-07T12:45:31.153Z,1.90
2017-10-07T12:48:05.634Z,2.00
2017-10-07T12:50:39.665Z,2.00
2017-10-07T12:53:13.320Z,2.30
2017-10-07T12:55:47.243Z,2.80
2017-10-07T12:58:21.842Z,2.17
2017-10-07T13:00:57.228Z,1.53
2017-10-07T13:03:31.288Z,1.73
2017-10-07T13:06:05.677Z,1.80
2017-10-07T13:08:39.725Z,1.83
2017-10-07T13:11:13.471Z,1.70
2017-10-07T13:13:47.400Z,2.00
2017-10-07T13:16:21.356Z,1.80
2017-10-07T13:18:55.079Z,2.00
2017-10-07T13:21:29.051Z,2.07
2017-10-07T13:24:02.938Z,2.00
2017-10-07T13:26:37.616Z,1.80
2017-10-07T13:29:11.791Z,2.07
2017-10-07T13:31:45.458Z,1.87
2017-10-07T13:34:19.292Z,1.77
2017-10-07T13:36:53.882Z,1.60
2017-10-07T13:39:28.091Z,2.00
2017-10-07T13:42:02.610Z,1.67
2017-10-07T13:44:38.280Z,1.87
2017-10-07T13:47:13.311Z,2.40
2017-10-07T13:49:47.459Z,2.37
2017-10-07T13:52:21.932Z,1.97
2017-10-07T13:54:55.889Z,2.03
2017-10-07T13:57:29.556Z,2.00
2017-10-07T14:00:03.345Z,1.43
2017-10-07T14:02:37.874Z,1.90
2017-10-07T14:05:11.745Z,1.40
2017-10-07T14:07:45.474Z,1.50
2017-10-07T14:10:19.281Z,1.37
2017-10-07T14:12:53.054Z,1.80
2017-10-07T14:15:27.303Z,1.73
2017-10-07T14:18:01.744Z,1.30
2017-10-07T14:20:36.628Z,1.60
2017-10-07T14:23:10.699Z,1.47
2017-10-07T14:25:44.555Z,1.40
2017-10-07T14:28:18.210Z,1.60
2017-10-07T14:30:51.977Z,1.40
2017-10-07T14:33:25.680Z,1.20
2017-10-07T14:35:59.825Z,1.50
2017-10-07T14:38:33.544Z,1.37
2017-10-07T14:41:08.153Z,1.57
2017-10-07T14:43:43.555Z,1.53
2017-10-07T14:46:17.513Z,2.03
2017-10-07T14:48:51.990Z,2.70
2017-10-07T14:51:26.066Z,1.70
2017-10-07T14:54:00.525Z,1.40
2017-10-07T14:56:35.260Z,1.43
2017-10-07T14:59:09.185Z,1.47
2017-10-07T15:01:43.078Z,1.13
2017-10-07T15:04:17.030Z,1.03
2017-10-07T15:06:51.516Z,1.90
2017-10-07T15:09:25.482Z,1.60
2017-10-07T15:11:59.194Z,1.83
2017-10-07T15:14:32.971Z,1.60
2017-10-07T15:17:07.364Z,1.60
2017-10-07T15:19:42.285Z,1.10
2017-10-07T15:22:16.137Z,1.40
2017-10-07T15:24:49.977Z,1.27
2017-10-07T15:27:24.101Z,1.17
2017-10-07T15:29:58.041Z,1.90
2017-10-07T15:32:32.277Z,1.60
2017-10-07T15:35:06.930Z,1.40
2017-10-07T15:37:41.299Z,1.63
2017-10-07T15:40:15.710Z,1.63
2017-10-07T15:42:50.615Z,1.60
2017-10-07T15:45:25.350Z,2.00
2017-10-07T15:47:59.326Z,1.40
2017-10-07T15:50:33.080Z,1.60
2017-10-07T15:53:06.962Z,1.73
2017-10-07T15:55:40.807Z,1.50
2017-10-07T15:58:15.469Z,1.90
2017-10-07T16:00:49.913Z,1.90
2017-10-07T16:03:23.751Z,1.27
2017-10-07T16:05:57.495Z,1.23
2017-10-07T16:08:31.231Z,1.70
2017-10-07T16:11:05.257Z,1.40
2017-10-07T16:13:39.067Z,1.80
2017-10-07T16:16:12.888Z,1.73
2017-10-07T16:18:46.765Z,1.93
2017-10-07T16:21:20.654Z,1.30
2017-10-07T16:23:54.389Z,1.20
2017-10-07T16:26:28.209Z,1.57
2017-10-07T16:29:01.943Z,1.20
2017-10-07T16:31:37.214Z,1.67
2017-10-07T16:34:11.459Z,1.77
2017-10-07T16:36:45.782Z,2.33
2017-10-07T16:39:20.453Z,2.20
2017-10-07T16:41:54.445Z,2.13
2017-10-07T16:44:28.305Z,1.97
2017-10-07T16:47:02.913Z,2.20
2017-10-07T16:49:37.767Z,1.63
2017-10-07T16:52:11.903Z,1.77
2017-10-07T16:54:45.665Z,1.73
2017-10-07T16:57:19.388Z,1.93
2017-10-07T16:59:53.041Z,1.80
2017-10-07T17:02:27.127Z,1.90
2017-10-07T17:05:02.537Z,1.30
2017-10-07T17:07:36.588Z,1.47
2017-10-07T17:10:10.414Z,2.43
2017-10-07T17:12:44.206Z,1.63
2017-10-07T17:15:18.665Z,1.90
2017-10-07T17:17:52.751Z,1.63
2017-10-07T17:20:26.500Z,1.97
2017-10-07T17:23:01.874Z,1.77
2017-10-07T17:25:35.904Z,1.30
2017-10-07T17:28:10.441Z,1.40
2017-10-07T17:30:45.241Z,1.30
2017-10-07T17:33:19.198Z,1.83
2017-10-07T17:35:52.922Z,1.63
2017-10-07T17:38:26.717Z,1.70
2017-10-07T17:41:01.317Z,1.80
2017-10-07T17:43:35.246Z,1.50
2017-10-07T17:46:10.028Z,1.83
2017-10-07T17:48:44.186Z,2.00
2017-10-07T17:51:18.804Z,1.77
2017-10-07T17:53:53.736Z,1.77
2017-10-07T17:56:28.548Z,2.23
2017-10-07T17:59:02.651Z,2.37
2017-10-07T18:01:38.133Z,1.50
2017-10-07T18:04:12.156Z,1.33
2017-10-07T18:06:45.923Z,1.50
2017-10-07T18:09:19.670Z,1.30
2017-10-07T18:11:53.792Z,1.77
2017-10-07T18:14:28.708Z,1.67
2017-10-07T18:17:02.385Z,1.70
2017-10-07T18:19:36.224Z,1.63
2017-10-07T18:22:10.132Z,1.50
2017-10-07T18:24:43.833Z,2.63
2017-10-07T18:27:18.504Z,1.50
2017-10-07T18:29:53.484Z,1.63
2017-10-07T18:32:28.202Z,1.80
2017-10-07T18:35:02.349Z,1.50
2017-10-07T18:37:36.804Z,1.40
2017-10-07T18:40:10.757Z,1.53
2017-10-07T18:42:45.377Z,1.70
2017-10-07T18:45:20.072Z,1.60
2017-10-07T18:47:54.801Z,1.30
2017-10-07T18:50:29.021Z,1.40
2017-10-07T18:53:02.762Z,1.67
2017-10-07T18:55:37.130Z,3.10
2017-10-07T18:58:11.492Z,1.30
2017-10-07T19:00:45.305Z,1.60
2017-10-07T19:03:19.022Z,2.00
2017-10-07T19:05:53.052Z,1.73
2017-10-07T19:08:27.661Z,1.30
2017-10-07T19:11:02.313Z,1.33
2017-10-07T19:13:36.388Z,2.17
2017-10-07T19:16:10.198Z,1.40
2017-10-07T19:18:44.761Z,1.93
2017-10-07T19:21:18.899Z,1.73
2017-10-07T19:23:52.738Z,1.20
2017-10-07T19:26:27.218Z,1.60
2017-10-07T19:29:01.236Z,1.70
2017-10-07T19:31:35.037Z,2.47
2017-10-07T19:47:19.781Z,1.33
